createdAt,value
2022-08-09T00:01:02.926Z,2.33
2022-08-09T00:06:19.253Z,2.38
2022-08-09T00:11:24.277Z,2.37
2022-08-09T00:16:26.240Z,2.40
2022-08-09T00:21:27.423Z,3.69
2022-08-09T00:26:33.370Z,2.64
2022-08-09T00:31:57.389Z,3.67
2022-08-09T00:36:46.766Z,2.52
2022-08-09T00:44:14.505Z,2.49
2022-08-09T00:47:04.616Z,2.68
2022-08-09T00:52:17.665Z,2.73
2022-08-09T00:57:12.104Z,4.12
2022-08-09T01:02:18.475Z,4.18
2022-08-09T01:07:38.139Z,2.83
2022-08-09T01:12:30.376Z,2.92
2022-08-09T01:17:36.501Z,2.86
2022-08-09T01:22:42.401Z,2.84
2022-08-09T01:27:48.704Z,3.11
2022-08-09T01:32:54.592Z,4.33
2022-08-09T01:38:08.129Z,2.83
2022-08-09T01:43:07.015Z,3.02
2022-08-09T01:48:15.441Z,3.11
2022-08-09T01:53:21.626Z,2.94
2022-08-09T01:58:25.481Z,2.92
2022-08-09T02:03:32.664Z,3.08
2022-08-09T02:08:57.731Z,3.03
2022-08-09T02:14:06.203Z,3.07
2022-08-09T02:18:53.277Z,3.06
2022-08-09T02:24:00.310Z,3.06
2022-08-09T02:29:06.225Z,4.64
2022-08-09T02:34:13.814Z,3.03
2022-08-09T02:39:19.792Z,3.22
2022-08-09T02:44:29.519Z,3.06
2022-08-09T02:49:41.156Z,4.59
2022-08-09T02:54:35.506Z,2.89
2022-08-09T03:00:21.525Z,3.37
2022-08-09T03:04:50.849Z,3.05
2022-08-09T03:09:54.196Z,4.77
2022-08-09T03:15:00.168Z,4.59
2022-08-09T03:20:11.035Z,3.07
2022-08-09T03:25:21.767Z,3.17
2022-08-09T03:30:30.069Z,3.22
2022-08-09T03:36:13.757Z,3.20
2022-08-09T03:40:30.891Z,3.10
2022-08-09T03:46:04.403Z,4.33
2022-08-09T03:50:41.717Z,4.57
2022-08-09T03:55:47.509Z,4.58
2022-08-09T04:00:53.295Z,4.64
2022-08-09T04:05:59.571Z,3.18
2022-08-09T04:11:06.037Z,4.51
2022-08-09T04:16:20.546Z,3.10
2022-08-09T04:21:18.314Z,4.82
2022-08-09T04:26:24.598Z,4.92
2022-08-09T04:31:37.504Z,4.72
2022-08-09T04:36:36.862Z,3.19
2022-08-09T04:41:43.824Z,4.84
2022-08-09T04:46:59.089Z,3.28
2022-08-09T04:51:54.906Z,4.59
2022-08-09T04:57:01.136Z,2.91
2022-08-09T05:02:06.926Z,4.66
2022-08-09T05:07:19.329Z,4.58
2022-08-09T05:12:22.718Z,3.62
2022-08-09T05:18:55.092Z,3.23
2022-08-09T05:23:53.694Z,4.78
2022-08-09T05:27:44.429Z,3.19
2022-08-09T05:32:43.527Z,3.05
2022-08-09T05:37:50.247Z,2.44
2022-08-09T05:42:55.376Z,3.19
2022-08-09T05:48:01.745Z,2.17
2022-08-09T05:53:11.641Z,2.37
2022-08-09T05:58:18.304Z,2.41
2022-08-09T06:03:20.511Z,3.56
2022-08-09T06:08:26.819Z,3.94
2022-08-09T06:13:34.056Z,5.29
2022-08-09T06:18:38.963Z,3.21
2022-08-09T06:23:58.236Z,4.54
2022-08-09T06:29:00.463Z,3.73
2022-08-09T06:33:56.989Z,4.17
2022-08-09T06:39:09.028Z,3.40
2022-08-09T06:44:08.782Z,3.42
2022-08-09T06:49:16.108Z,3.08
2022-08-09T06:54:21.061Z,2.59
2022-08-09T07:00:50.843Z,2.98
2022-08-09T07:04:33.237Z,2.64
2022-08-09T07:09:54.854Z,2.75
2022-08-09T07:14:45.642Z,2.42
2022-08-09T07:19:55.182Z,3.24
2022-08-09T07:24:57.361Z,2.09
2022-08-09T07:30:03.151Z,2.28
2022-08-09T07:35:11.689Z,3.26
2022-08-09T07:40:16.820Z,2.88
2022-08-09T07:45:39.787Z,1.82
2022-08-09T07:50:32.970Z,1.94
2022-08-09T07:55:41.727Z,1.90
2022-08-09T08:00:55.769Z,1.78
2022-08-09T08:05:54.196Z,1.90
2022-08-09T08:11:03.337Z,1.67
2022-08-09T08:15:59.943Z,2.61
2022-08-09T08:21:05.738Z,1.63
2022-08-09T08:26:11.681Z,2.81
2022-08-09T08:31:24.433Z,1.71
2022-08-09T08:36:30.602Z,1.87
2022-08-09T08:41:42.142Z,1.88
2022-08-09T08:47:00.027Z,1.67
2022-08-09T08:52:00.137Z,1.50
2022-08-09T08:56:56.701Z,1.99
2022-08-09T09:02:03.925Z,2.19
2022-08-09T09:07:12.074Z,2.22
2022-08-09T09:12:19.624Z,2.02
2022-08-09T09:17:25.687Z,1.52
2022-08-09T09:22:36.019Z,1.42
2022-08-09T09:28:05.727Z,1.37
2022-08-09T09:32:41.318Z,1.20
2022-08-09T09:37:37.699Z,1.44
2022-08-09T09:42:46.242Z,1.38
2022-08-09T09:47:58.391Z,1.41
2022-08-09T09:52:56.390Z,1.57
2022-08-09T09:58:15.759Z,1.92
2022-08-09T10:03:14.008Z,1.31
2022-08-09T10:08:27.566Z,1.76
2022-08-09T10:13:45.194Z,1.31
2022-08-09T10:18:33.324Z,1.64
2022-08-09T10:23:39.790Z,1.32
2022-08-09T10:29:37.558Z,1.61
2022-08-09T10:34:08.107Z,1.54
2022-08-09T10:39:01.702Z,1.51
2022-08-09T10:44:08.153Z,1.47
2022-08-09T10:49:15.941Z,1.42
2022-08-09T10:54:23.311Z,1.49
2022-08-09T10:59:31.192Z,1.57
2022-08-09T11:04:36.271Z,1.52
2022-08-09T11:09:47.468Z,1.44
2022-08-09T11:14:51.108Z,1.67
2022-08-09T11:20:11.999Z,1.44
2022-08-09T11:25:04.823Z,1.25
2022-08-09T11:30:33.779Z,1.27
2022-08-09T11:35:25.057Z,1.44
2022-08-09T11:40:27.577Z,1.31
2022-08-09T11:45:43.150Z,1.29
2022-08-09T11:50:56.168Z,1.38
2022-08-09T11:55:52.614Z,1.33
2022-08-09T12:00:47.123Z,1.43
2022-08-09T12:05:53.037Z,1.53
2022-08-09T12:10:58.917Z,1.78
2022-08-09T12:16:05.328Z,1.82
2022-08-09T12:21:28.570Z,1.41
2022-08-09T12:26:25.617Z,1.44
2022-08-09T12:31:31.168Z,1.60
2022-08-09T12:36:36.115Z,1.34
2022-08-09T12:41:41.606Z,1.63
2022-08-09T12:46:48.760Z,1.83
2022-08-09T12:52:02.695Z,1.50
2022-08-09T12:57:02.746Z,1.60
2022-08-09T13:02:09.560Z,1.56
2022-08-09T13:07:15.356Z,1.69
2022-08-09T13:12:22.212Z,2.01
2022-08-09T13:17:58.799Z,1.73
2022-08-09T13:23:05.250Z,1.78
2022-08-09T13:27:55.252Z,1.90
2022-08-09T13:32:48.537Z,1.86
2022-08-09T13:37:53.486Z,1.72
2022-08-09T13:43:04.892Z,1.78
2022-08-09T13:48:10.903Z,2.00
2022-08-09T13:53:18.024Z,1.75
2022-08-09T13:58:23.930Z,1.83
2022-08-09T14:04:03.225Z,2.20
2022-08-09T14:08:35.826Z,1.85
2022-08-09T14:14:22.856Z,2.07
2022-08-09T14:18:50.609Z,2.02
2022-08-09T14:23:56.980Z,2.17
2022-08-09T14:29:01.027Z,2.01
2022-08-09T14:34:08.730Z,1.78
2022-08-09T14:39:18.652Z,2.12
2022-08-09T14:44:32.376Z,2.00
2022-08-09T14:49:34.595Z,2.04
2022-08-09T14:54:40.829Z,1.92
2022-08-09T14:59:50.095Z,2.04
2022-08-09T15:05:00.445Z,2.51
2022-08-09T15:10:07.691Z,2.03
2022-08-09T15:15:02.637Z,2.10
2022-08-09T15:20:11.852Z,1.91
2022-08-09T15:25:16.486Z,2.07
2022-08-09T15:30:56.811Z,2.05
2022-08-09T15:40:33.659Z,1.94
2022-08-09T15:45:29.694Z,2.08
2022-08-09T15:50:34.494Z,2.30
2022-08-09T15:56:04.114Z,2.37
2022-08-09T16:00:47.825Z,1.69
2022-08-09T16:05:55.932Z,1.92
2022-08-09T16:11:00.146Z,1.94
2022-08-09T16:16:17.114Z,2.07
2022-08-09T16:21:12.135Z,2.20
2022-08-09T16:26:20.102Z,2.18
2022-08-09T16:32:11.178Z,1.93
2022-08-09T16:36:29.850Z,2.09
2022-08-09T16:42:02.254Z,1.65
2022-08-09T16:46:41.598Z,2.01
2022-08-09T16:51:55.183Z,2.07
2022-08-09T16:57:01.241Z,2.22
2022-08-09T17:01:57.968Z,2.03
2022-08-09T17:08:40.189Z,1.88
2022-08-09T17:12:10.262Z,1.98
2022-08-09T17:17:26.805Z,1.85
2022-08-09T17:22:31.305Z,2.17
2022-08-09T17:27:28.993Z,1.86
2022-08-09T17:32:38.705Z,2.02
2022-08-09T17:38:12.670Z,2.09
2022-08-09T17:42:55.831Z,1.81
2022-08-09T17:48:02.379Z,1.78
2022-08-09T17:52:49.133Z,1.62
2022-08-09T17:58:03.678Z,1.70
2022-08-09T18:02:58.468Z,1.82
2022-08-09T18:07:57.760Z,1.90
2022-08-09T18:13:43.730Z,2.27
2022-08-09T18:18:09.655Z,1.73
2022-08-09T18:24:09.788Z,1.82
2022-08-09T18:30:35.483Z,1.75
2022-08-09T18:33:29.887Z,2.01
2022-08-09T18:38:37.185Z,1.95
2022-08-09T18:43:53.013Z,2.05
2022-08-09T18:48:48.838Z,1.92
2022-08-09T18:54:02.759Z,1.88
2022-08-09T18:59:07.010Z,2.00
2022-08-09T19:04:08.090Z,1.92
2022-08-09T19:09:13.492Z,1.80
2022-08-09T19:14:16.128Z,1.71
2022-08-09T19:19:26.034Z,1.81
2022-08-09T19:24:36.425Z,2.02
2022-08-09T19:29:38.315Z,1.87
2022-08-09T19:34:43.675Z,2.12
2022-08-09T19:40:03.959Z,1.74
2022-08-09T19:44:52.127Z,2.38
2022-08-09T19:50:06.930Z,1.93
2022-08-09T19:55:04.872Z,2.02
2022-08-09T20:00:11.594Z,2.19
2022-08-09T20:05:18.552Z,2.24
2022-08-09T20:10:34.662Z,1.67
2022-08-09T20:16:37.976Z,1.80
2022-08-09T20:20:41.628Z,2.07
2022-08-09T20:25:52.488Z,1.95
2022-08-09T20:30:56.504Z,2.08
2022-08-09T20:36:04.483Z,2.03
2022-08-09T20:41:12.145Z,1.95
2022-08-09T20:46:41.629Z,2.05
2022-08-09T20:51:27.230Z,2.16
2022-08-09T20:56:34.100Z,2.21
2022-08-09T21:01:50.260Z,1.92
2022-08-09T21:06:47.593Z,2.21
2022-08-09T21:18:22.559Z,2.06
2022-08-09T21:22:03.480Z,1.68
2022-08-09T21:27:52.436Z,1.83
2022-08-09T21:32:20.124Z,2.12
2022-08-09T21:37:26.970Z,2.16
2022-08-09T21:42:36.628Z,2.07
2022-08-09T21:47:42.499Z,2.12
2022-08-09T21:52:49.092Z,3.03
2022-08-09T21:57:59.451Z,2.60
2022-08-09T22:03:25.277Z,2.70
2022-08-09T22:08:13.036Z,3.28
2022-08-09T22:18:20.015Z,2.57
2022-08-09T22:23:35.091Z,1.76
2022-08-09T22:28:36.122Z,2.06
2022-08-09T22:33:48.937Z,1.77
2022-08-09T22:38:49.844Z,1.80
2022-08-09T22:44:03.735Z,1.82
2022-08-09T22:49:09.840Z,2.63
2022-08-09T22:54:13.157Z,1.72
2022-08-09T22:59:58.346Z,2.06
2022-08-09T23:04:32.878Z,1.75
2022-08-09T23:09:36.118Z,1.83
2022-08-09T23:14:42.230Z,1.86
2022-08-09T23:20:07.216Z,1.79
2022-08-09T23:24:54.174Z,1.59
2022-08-09T23:30:00.588Z,1.69
2022-08-09T23:35:07.273Z,1.81
2022-08-09T23:40:14.804Z,1.80
2022-08-09T23:45:37.864Z,1.93
2022-08-09T23:50:26.386Z,2.47
2022-08-09T23:55:33.187Z,1.98
